createdAt,value
2023-03-01T00:00:22.430Z,65.30
2023-03-01T00:01:22.970Z,64.98
2023-03-01T00:02:22.438Z,65.19
2023-03-01T00:03:23.415Z,65.19
2023-03-01T00:04:22.404Z,65.22
2023-03-01T00:05:22.389Z,65.50
2023-03-01T00:06:22.382Z,65.11
2023-03-01T00:07:23.333Z,65.22
2023-03-01T00:08:22.335Z,65.53
2023-03-01T00:09:22.367Z,65.64
2023-03-01T00:10:22.301Z,65.61
2023-03-01T00:11:22.403Z,65.95
2023-03-01T00:12:22.309Z,65.64
2023-03-01T00:13:23.264Z,65.95
2023-03-01T00:14:23.278Z,66.16
2023-03-01T00:15:22.260Z,65.74
2023-03-01T00:16:23.300Z,65.71
2023-03-01T00:17:23.255Z,66.13
2023-03-01T00:18:22.248Z,65.71
2023-03-01T00:19:22.262Z,65.84
2023-03-01T00:20:22.216Z,65.81
2023-03-01T00:21:22.191Z,65.95
2023-03-01T00:22:22.169Z,66.02
2023-03-01T00:23:23.185Z,65.92
2023-03-01T00:24:22.163Z,65.71
2023-03-01T00:25:22.245Z,65.81
2023-03-01T00:26:22.124Z,65.84
2023-03-01T00:27:23.156Z,65.61
2023-03-01T00:28:22.121Z,65.61
2023-03-01T00:29:22.113Z,65.71
2023-03-01T00:30:22.095Z,65.71
2023-03-01T00:31:23.186Z,65.95
2023-03-01T00:32:22.096Z,65.64
2023-03-01T00:33:23.060Z,66.05
2023-03-01T00:34:22.103Z,66.16
2023-03-01T00:35:23.069Z,66.16
2023-03-01T00:36:22.045Z,65.95
2023-03-01T00:37:22.016Z,66.36
2023-03-01T00:38:22.024Z,66.39
2023-03-01T00:39:22.047Z,66.99
2023-03-01T00:40:22.003Z,66.26
2023-03-01T00:41:21.990Z,65.77
2023-03-01T00:42:21.986Z,66.39
2023-03-01T00:43:22.986Z,66.50
2023-03-01T00:44:22.010Z,66.39
2023-03-01T00:45:21.946Z,66.29
2023-03-01T00:46:22.058Z,66.71
2023-03-01T00:47:21.922Z,66.92
2023-03-01T00:48:22.904Z,66.29
2023-03-01T00:49:21.912Z,66.19
2023-03-01T00:50:21.960Z,65.98
2023-03-01T00:51:21.889Z,66.50
2023-03-01T00:52:21.889Z,66.60
2023-03-01T00:53:21.872Z,66.26
2023-03-01T00:54:21.857Z,66.29
2023-03-01T00:55:21.837Z,66.39
2023-03-01T00:56:21.888Z,66.47
2023-03-01T00:57:21.836Z,66.92
2023-03-01T00:58:21.805Z,67.30
2023-03-01T00:59:21.823Z,66.05
2023-03-01T01:00:21.797Z,65.95
2023-03-01T01:01:21.846Z,66.19
2023-03-01T01:02:21.881Z,66.05
2023-03-01T01:03:21.777Z,66.89
2023-03-01T01:04:21.736Z,66.68
2023-03-01T01:05:21.752Z,66.36
2023-03-01T01:06:21.737Z,66.16
2023-03-01T01:07:21.692Z,65.84
2023-03-01T01:08:22.720Z,66.36
2023-03-01T01:09:21.718Z,66.16
2023-03-01T01:10:21.659Z,66.16
2023-03-01T01:11:22.644Z,65.64
2023-03-01T01:12:22.693Z,65.84
2023-03-01T01:13:22.642Z,66.19
2023-03-01T01:14:21.748Z,66.36
2023-03-01T01:15:22.631Z,66.36
2023-03-01T01:16:21.643Z,66.47
2023-03-01T01:17:21.613Z,66.47
2023-03-01T01:18:21.598Z,66.26
2023-03-01T01:19:22.582Z,65.95
2023-03-01T01:20:21.559Z,65.84
2023-03-01T01:21:21.603Z,65.43
2023-03-01T01:22:22.569Z,65.77
2023-03-01T01:23:21.544Z,65.74
2023-03-01T01:24:21.554Z,65.74
2023-03-01T01:25:21.506Z,65.53
2023-03-01T01:26:21.553Z,65.33
2023-03-01T01:27:21.559Z,65.25
2023-03-01T01:28:21.470Z,65.46
2023-03-01T01:29:22.450Z,65.98
2023-03-01T01:30:21.480Z,65.70
2023-03-01T01:31:22.536Z,66.01
2023-03-01T01:32:21.571Z,66.56
2023-03-01T01:33:21.435Z,66.46
2023-03-01T01:34:22.461Z,66.32
2023-03-01T01:35:21.445Z,66.60
2023-03-01T01:36:21.393Z,66.53
2023-03-01T01:37:21.421Z,66.22
2023-03-01T01:38:21.371Z,66.01
2023-03-01T01:39:22.366Z,66.08
2023-03-01T01:40:21.346Z,65.77
2023-03-01T01:41:22.396Z,66.01
2023-03-01T01:42:22.346Z,65.80
2023-03-01T01:43:21.315Z,65.70
2023-03-01T01:44:21.343Z,66.01
2023-03-01T01:45:21.293Z,65.80
2023-03-01T01:46:21.368Z,66.22
2023-03-01T01:47:21.333Z,66.22
2023-03-01T01:48:21.250Z,65.80
2023-03-01T01:49:21.255Z,65.91
2023-03-01T01:50:21.251Z,66.01
2023-03-01T01:51:21.444Z,66.14
2023-03-01T01:52:21.249Z,66.25
2023-03-01T01:53:21.327Z,66.53
2023-03-01T01:54:21.218Z,66.42
2023-03-01T01:55:21.186Z,66.85
2023-03-01T01:56:21.195Z,66.53
2023-03-01T01:57:21.163Z,66.53
2023-03-01T01:58:21.195Z,66.53
2023-03-01T01:59:21.164Z,66.22
2023-03-01T02:00:21.168Z,66.32
2023-03-01T02:01:22.100Z,66.42
2023-03-01T02:02:21.374Z,66.53
2023-03-01T02:03:22.238Z,66.22
2023-03-01T02:04:21.100Z,66.42
2023-03-01T02:05:21.110Z,66.53
2023-03-01T02:06:21.113Z,66.71
2023-03-01T02:07:21.121Z,66.42
2023-03-01T02:08:22.050Z,65.59
2023-03-01T02:09:21.039Z,66.11
2023-03-01T02:10:21.037Z,66.11
2023-03-01T02:11:21.043Z,66.42
2023-03-01T02:12:21.032Z,66.39
2023-03-01T02:13:21.005Z,66.29
2023-03-01T02:14:21.012Z,65.70
2023-03-01T02:15:20.985Z,66.01
2023-03-01T02:16:22.051Z,65.80
2023-03-01T02:17:20.937Z,66.32
2023-03-01T02:18:20.938Z,65.91
2023-03-01T02:19:21.009Z,66.22
2023-03-01T02:20:20.923Z,65.56
2023-03-01T02:21:20.898Z,65.70
2023-03-01T02:22:21.064Z,65.83
2023-03-01T02:23:20.922Z,65.70
2023-03-01T02:24:21.881Z,66.32
2023-03-01T02:25:20.877Z,66.32
2023-03-01T02:26:20.839Z,66.22
2023-03-01T02:27:20.863Z,66.01
2023-03-01T02:28:21.880Z,65.70
2023-03-01T02:29:20.829Z,65.80
2023-03-01T02:30:20.823Z,65.91
2023-03-01T02:31:20.930Z,65.80
2023-03-01T02:32:20.880Z,65.31
2023-03-01T02:33:20.774Z,65.62
2023-03-01T02:34:21.753Z,65.73
2023-03-01T02:35:20.829Z,66.25
2023-03-01T02:36:20.810Z,66.49
2023-03-01T02:37:20.749Z,66.66
2023-03-01T02:38:20.738Z,66.46
2023-03-01T02:39:20.711Z,66.77
2023-03-01T02:40:20.687Z,66.56
2023-03-01T02:41:20.731Z,66.25
2023-03-01T02:42:20.677Z,66.25
2023-03-01T02:43:21.658Z,66.35
2023-03-01T02:44:21.687Z,66.14
2023-03-01T02:45:20.645Z,65.83
2023-03-01T02:46:20.735Z,66.56
2023-03-01T02:47:21.617Z,66.46
2023-03-01T02:48:20.638Z,66.56
2023-03-01T02:49:20.623Z,66.56
2023-03-01T02:50:20.585Z,66.63
2023-03-01T02:51:20.655Z,66.35
2023-03-01T02:52:21.606Z,65.83
2023-03-01T02:53:20.550Z,66.25
2023-03-01T02:54:20.546Z,66.46
2023-03-01T02:55:20.561Z,66.49
2023-03-01T02:56:20.538Z,66.46
2023-03-01T02:57:20.564Z,66.17
2023-03-01T02:58:20.546Z,66.49
2023-03-01T02:59:20.482Z,66.17
2023-03-01T03:00:20.730Z,66.56
2023-03-01T03:01:20.486Z,67.29
2023-03-01T03:02:20.497Z,66.14
2023-03-01T03:03:20.587Z,66.46
2023-03-01T03:04:20.469Z,66.77
2023-03-01T03:05:20.432Z,66.46
2023-03-01T03:06:21.423Z,66.88
2023-03-01T03:07:21.429Z,66.14
2023-03-01T03:08:20.409Z,65.94
2023-03-01T03:09:20.432Z,66.14
2023-03-01T03:10:20.412Z,66.25
2023-03-01T03:11:21.380Z,66.66
2023-03-01T03:12:20.412Z,66.14
2023-03-01T03:13:20.338Z,67.60
2023-03-01T03:14:20.370Z,66.25
2023-03-01T03:15:21.370Z,66.56
2023-03-01T03:16:20.914Z,66.56
2023-03-01T03:17:20.304Z,66.77
2023-03-01T03:18:20.288Z,66.46
2023-03-01T03:19:20.276Z,66.25
2023-03-01T03:20:20.410Z,66.25
2023-03-01T03:21:20.272Z,66.56
2023-03-01T03:22:21.353Z,66.69
2023-03-01T03:23:20.331Z,66.31
2023-03-01T03:24:20.234Z,66.62
2023-03-01T03:25:21.230Z,67.14
2023-03-01T03:26:20.207Z,67.35
2023-03-01T03:27:21.192Z,66.97
2023-03-01T03:28:20.235Z,67.69
2023-03-01T03:29:20.188Z,67.69
2023-03-01T03:30:20.165Z,67.41
2023-03-01T03:31:20.225Z,68.04
2023-03-01T03:32:20.213Z,68.25
2023-03-01T03:33:20.186Z,68.57
2023-03-01T03:34:20.157Z,68.88
2023-03-01T03:35:20.093Z,68.46
2023-03-01T03:36:21.098Z,69.09
2023-03-01T03:37:21.101Z,68.98
2023-03-01T03:38:20.090Z,69.19
2023-03-01T03:39:20.740Z,68.32
2023-03-01T03:40:20.113Z,68.22
2023-03-01T03:41:21.066Z,68.82
2023-03-01T03:42:20.042Z,67.98
2023-03-01T03:43:20.069Z,67.77
2023-03-01T03:44:20.997Z,67.98
2023-03-01T03:45:20.001Z,67.95
2023-03-01T03:46:20.068Z,67.01
2023-03-01T03:47:20.000Z,67.35
2023-03-01T03:48:19.969Z,66.91
2023-03-01T03:49:19.961Z,67.32
2023-03-01T03:50:19.949Z,66.94
2023-03-01T03:51:19.964Z,67.01
2023-03-01T03:52:19.990Z,66.83
2023-03-01T03:53:19.918Z,66.83
2023-03-01T03:54:19.894Z,66.62
2023-03-01T03:55:20.911Z,66.62
2023-03-01T03:56:19.912Z,66.59
2023-03-01T03:57:20.861Z,66.80
2023-03-01T03:58:19.879Z,66.62
2023-03-01T03:59:19.871Z,66.10
2023-03-01T04:00:19.840Z,66.41
2023-03-01T04:01:19.865Z,67.38
2023-03-01T04:02:19.844Z,67.28
2023-03-01T04:03:19.843Z,67.18
2023-03-01T04:04:20.825Z,67.00
2023-03-01T04:05:19.787Z,68.04
2023-03-01T04:06:19.777Z,67.62
2023-03-01T04:07:19.820Z,68.35
2023-03-01T04:08:19.764Z,68.15
2023-03-01T04:09:19.774Z,68.01
2023-03-01T04:10:19.760Z,68.01
2023-03-01T04:11:19.787Z,68.22
2023-03-01T04:12:19.703Z,68.01
2023-03-01T04:13:19.698Z,67.66
2023-03-01T04:14:19.690Z,67.18
2023-03-01T04:15:19.715Z,67.66
2023-03-01T04:16:19.746Z,67.80
2023-03-01T04:17:19.662Z,66.94
2023-03-01T04:18:19.640Z,67.04
2023-03-01T04:19:20.659Z,66.94
2023-03-01T04:20:19.640Z,67.25
2023-03-01T04:21:19.601Z,67.35
2023-03-01T04:22:20.717Z,67.38
2023-03-01T04:23:19.626Z,67.14
2023-03-01T04:24:20.604Z,67.25
2023-03-01T04:25:19.585Z,67.04
2023-03-01T04:26:19.569Z,66.94
2023-03-01T04:27:19.570Z,66.83
2023-03-01T04:28:19.605Z,66.83
2023-03-01T04:29:19.545Z,67.04
2023-03-01T04:30:19.514Z,67.56
2023-03-01T04:31:19.599Z,67.25
2023-03-01T04:32:19.691Z,67.35
2023-03-01T04:33:20.484Z,66.72
2023-03-01T04:34:19.460Z,66.52
2023-03-01T04:35:20.462Z,66.10
2023-03-01T04:36:19.627Z,66.44
2023-03-01T04:37:19.450Z,66.97
2023-03-01T04:38:19.437Z,67.49
2023-03-01T04:39:19.403Z,67.80
2023-03-01T04:40:19.401Z,67.31
2023-03-01T04:41:19.425Z,67.21
2023-03-01T04:42:20.441Z,67.94
2023-03-01T04:43:19.412Z,68.46
2023-03-01T04:44:19.391Z,68.35
2023-03-01T04:45:19.342Z,68.15
2023-03-01T04:46:19.450Z,68.25
2023-03-01T04:47:20.295Z,68.04
2023-03-01T04:48:19.340Z,67.52
2023-03-01T04:49:19.323Z,67.62
2023-03-01T04:50:19.334Z,67.62
2023-03-01T04:51:20.307Z,67.41
2023-03-01T04:52:19.279Z,67.83
2023-03-01T04:53:19.296Z,68.80
2023-03-01T04:54:19.285Z,68.63
2023-03-01T04:55:19.248Z,69.15
2023-03-01T04:56:19.292Z,68.91
2023-03-01T04:57:20.222Z,69.64
2023-03-01T04:58:20.207Z,68.98
2023-03-01T04:59:20.205Z,68.80
2023-03-01T05:00:19.237Z,68.46
2023-03-01T05:01:19.171Z,68.77
2023-03-01T05:02:19.196Z,68.25
2023-03-01T05:03:19.170Z,68.77
2023-03-01T05:04:19.166Z,68.35
2023-03-01T05:05:19.135Z,68.25
2023-03-01T05:06:19.224Z,68.57
2023-03-01T05:07:19.119Z,68.77
2023-03-01T05:08:19.101Z,67.94
2023-03-01T05:09:19.093Z,68.15
2023-03-01T05:10:19.077Z,67.94
2023-03-01T05:11:19.100Z,68.01
2023-03-01T05:12:19.098Z,68.15
2023-03-01T05:13:19.111Z,68.04
2023-03-01T05:14:19.024Z,67.41
2023-03-01T05:15:20.037Z,67.31
2023-03-01T05:16:19.107Z,68.46
2023-03-01T05:17:18.997Z,68.35
2023-03-01T05:18:19.021Z,68.35
2023-03-01T05:19:20.035Z,68.77
2023-03-01T05:20:18.981Z,67.83
2023-03-01T05:21:18.985Z,68.57
2023-03-01T05:22:18.979Z,68.57
2023-03-01T05:23:18.947Z,68.67
2023-03-01T05:24:18.957Z,67.94
2023-03-01T05:25:18.946Z,68.46
2023-03-01T05:26:28.503Z,68.04
2023-03-01T05:27:19.886Z,67.62
2023-03-01T05:28:18.902Z,67.31
2023-03-01T05:29:19.864Z,67.62
2023-03-01T05:30:19.869Z,67.31
2023-03-01T05:31:18.967Z,68.04
2023-03-01T05:32:19.813Z,67.41
2023-03-01T05:33:19.860Z,67.62
2023-03-01T05:34:18.809Z,67.97
2023-03-01T05:35:19.055Z,68.70
2023-03-01T05:36:18.800Z,68.80
2023-03-01T05:37:19.791Z,69.22
2023-03-01T05:38:18.819Z,68.49
2023-03-01T05:39:18.841Z,68.98
2023-03-01T05:40:18.745Z,69.12
2023-03-01T05:41:18.826Z,68.88
2023-03-01T05:42:18.746Z,68.57
2023-03-01T05:43:18.724Z,68.35
2023-03-01T05:44:19.732Z,68.77
2023-03-01T05:45:18.722Z,68.91
2023-03-01T05:46:18.848Z,68.63
2023-03-01T05:47:18.808Z,68.70
2023-03-01T05:48:18.686Z,68.94
2023-03-01T05:49:18.649Z,69.26
2023-03-01T05:50:19.654Z,69.57
2023-03-01T05:51:18.666Z,70.09
2023-03-01T05:52:18.632Z,70.09
2023-03-01T05:53:18.679Z,70.09
2023-03-01T05:54:18.626Z,70.12
2023-03-01T05:55:18.629Z,69.92
2023-03-01T05:56:19.589Z,70.43
2023-03-01T05:57:18.596Z,70.75
2023-03-01T05:58:19.581Z,70.96
2023-03-01T05:59:19.554Z,71.14
2023-03-01T06:00:19.541Z,70.93
2023-03-01T06:01:18.542Z,70.72
2023-03-01T06:02:18.526Z,70.37
2023-03-01T06:03:19.540Z,69.95
2023-03-01T06:04:18.558Z,70.06
2023-03-01T06:05:19.334Z,69.71
2023-03-01T06:06:19.478Z,69.61
2023-03-01T06:07:18.456Z,69.71
2023-03-01T06:08:18.469Z,69.37
2023-03-01T06:09:19.520Z,69.06
2023-03-01T06:10:19.446Z,68.43
2023-03-01T06:11:19.416Z,68.60
2023-03-01T06:12:19.418Z,68.19
2023-03-01T06:13:18.404Z,67.56
2023-03-01T06:14:18.436Z,67.56
2023-03-01T06:15:18.413Z,67.98
2023-03-01T06:16:19.393Z,67.66
2023-03-01T06:17:18.375Z,67.77
2023-03-01T06:18:19.336Z,67.66
2023-03-01T06:19:18.345Z,67.25
2023-03-01T06:20:18.330Z,67.43
2023-03-01T06:21:19.397Z,67.85
2023-03-01T06:22:18.333Z,67.43
2023-03-01T06:23:18.296Z,67.32
2023-03-01T06:24:18.285Z,66.91
2023-03-01T06:25:19.292Z,66.62
2023-03-01T06:26:19.281Z,66.59
2023-03-01T06:27:18.252Z,67.01
2023-03-01T06:28:18.264Z,67.43
2023-03-01T06:29:18.234Z,67.22
2023-03-01T06:30:18.231Z,67.19
2023-03-01T06:31:18.313Z,66.80
2023-03-01T06:32:18.295Z,66.77
2023-03-01T06:33:19.192Z,66.14
2023-03-01T06:34:18.195Z,66.35
2023-03-01T06:35:18.230Z,66.35
2023-03-01T06:36:18.215Z,67.08
2023-03-01T06:37:19.160Z,66.56
2023-03-01T06:38:19.139Z,66.66
2023-03-01T06:39:18.111Z,66.35
2023-03-01T06:40:18.124Z,66.25
2023-03-01T06:41:18.143Z,66.14
2023-03-01T06:42:19.164Z,66.25
2023-03-01T06:43:18.069Z,66.66
2023-03-01T06:44:18.087Z,66.35
2023-03-01T06:45:18.051Z,65.91
2023-03-01T06:46:18.072Z,67.05
2023-03-01T06:47:18.029Z,66.63
2023-03-01T06:48:18.078Z,66.53
2023-03-01T06:49:18.020Z,66.42
2023-03-01T06:50:19.117Z,66.01
2023-03-01T06:51:18.008Z,66.32
2023-03-01T06:52:18.031Z,66.42
2023-03-01T06:53:18.002Z,65.70
2023-03-01T06:54:19.054Z,66.01
2023-03-01T06:55:17.959Z,65.59
2023-03-01T06:56:17.941Z,65.77
2023-03-01T06:57:17.930Z,66.19
2023-03-01T06:58:17.932Z,65.67
2023-03-01T06:59:17.896Z,65.56
2023-03-01T07:00:17.927Z,65.88
2023-03-01T07:01:17.984Z,65.43
2023-03-01T07:02:17.874Z,65.53
2023-03-01T07:03:17.859Z,65.43
2023-03-01T07:04:17.858Z,65.33
2023-03-01T07:05:18.886Z,65.11
2023-03-01T07:06:18.853Z,65.22
2023-03-01T07:07:17.836Z,65.22
2023-03-01T07:08:17.805Z,64.90
2023-03-01T07:09:17.842Z,64.18
2023-03-01T07:10:17.798Z,64.25
2023-03-01T07:11:17.800Z,64.32
2023-03-01T07:12:18.788Z,63.91
2023-03-01T07:13:17.787Z,63.26
2023-03-01T07:14:17.773Z,63.15
2023-03-01T07:15:18.752Z,62.71
2023-03-01T07:16:17.778Z,62.60
2023-03-01T07:17:18.737Z,63.02
2023-03-01T07:18:18.700Z,61.98
2023-03-01T07:19:17.694Z,62.50
2023-03-01T07:20:17.672Z,62.60
2023-03-01T07:21:17.731Z,62.40
2023-03-01T07:22:17.685Z,62.68
2023-03-01T07:23:17.672Z,62.26
2023-03-01T07:24:17.684Z,62.71
2023-03-01T07:25:17.675Z,61.74
2023-03-01T07:26:17.640Z,62.26
2023-03-01T07:27:17.628Z,61.77
2023-03-01T07:28:17.626Z,61.64
2023-03-01T07:29:17.630Z,61.85
2023-03-01T07:30:17.585Z,61.88
2023-03-01T07:31:17.568Z,61.77
2023-03-01T07:32:17.812Z,61.98
2023-03-01T07:33:17.749Z,62.08
2023-03-01T07:34:17.570Z,62.26
2023-03-01T07:35:17.505Z,61.64
2023-03-01T07:36:18.515Z,61.88
2023-03-01T07:37:17.500Z,61.67
2023-03-01T07:38:25.281Z,61.54
2023-03-01T07:39:18.664Z,62.16
2023-03-01T07:40:17.478Z,61.77
2023-03-01T07:41:17.464Z,61.85
2023-03-01T07:42:17.498Z,61.67
2023-03-01T07:43:17.507Z,61.85
2023-03-01T07:44:17.431Z,61.77
2023-03-01T07:45:17.423Z,62.16
2023-03-01T07:46:18.401Z,62.08
2023-03-01T07:47:18.399Z,61.98
2023-03-01T07:48:17.378Z,62.81
2023-03-01T07:49:17.408Z,62.50
2023-03-01T07:50:18.366Z,61.95
2023-03-01T07:51:17.507Z,61.67
2023-03-01T07:52:17.319Z,62.37
2023-03-01T07:53:17.319Z,61.85
2023-03-01T07:54:17.329Z,62.16
2023-03-01T07:55:18.317Z,61.51
2023-03-01T07:56:17.292Z,61.51
2023-03-01T07:57:18.340Z,61.40
2023-03-01T07:58:17.268Z,61.17
2023-03-01T07:59:17.261Z,60.44
2023-03-01T08:00:17.236Z,60.96
2023-03-01T08:01:17.264Z,60.86
2023-03-01T08:02:17.218Z,60.65
2023-03-01T08:03:18.269Z,60.93
2023-03-01T08:04:17.238Z,59.92
2023-03-01T08:05:17.194Z,60.10
2023-03-01T08:06:17.172Z,60.10
2023-03-01T08:07:17.157Z,59.45
2023-03-01T08:08:18.728Z,59.38
2023-03-01T08:09:17.202Z,59.35
2023-03-01T08:10:17.184Z,59.66
2023-03-01T08:11:17.126Z,59.74
2023-03-01T08:12:17.146Z,58.91
2023-03-01T08:13:17.091Z,58.70
2023-03-01T08:14:17.121Z,59.11
2023-03-01T08:15:17.149Z,58.80
2023-03-01T08:16:17.149Z,58.70
2023-03-01T08:17:17.081Z,59.01
2023-03-01T08:18:17.145Z,59.32
2023-03-01T08:19:17.024Z,59.11
2023-03-01T08:20:19.855Z,59.04
2023-03-01T08:21:18.016Z,58.94
2023-03-01T08:22:17.059Z,59.77
2023-03-01T08:23:16.996Z,59.45
2023-03-01T08:24:17.045Z,59.14
2023-03-01T08:25:16.982Z,59.58
2023-03-01T08:26:16.978Z,60.52
2023-03-01T08:27:16.963Z,59.97
2023-03-01T08:28:16.937Z,60.08
2023-03-01T08:29:16.937Z,59.74
2023-03-01T08:30:17.952Z,59.42
2023-03-01T08:31:17.056Z,59.63
2023-03-01T08:32:16.975Z,58.98
2023-03-01T08:33:16.950Z,58.88
2023-03-01T08:34:16.891Z,58.44
2023-03-01T08:35:16.886Z,58.02
2023-03-01T08:36:16.889Z,57.58
2023-03-01T08:37:17.852Z,58.31
2023-03-01T08:38:16.834Z,57.68
2023-03-01T08:39:16.877Z,57.48
2023-03-01T08:40:16.813Z,57.37
2023-03-01T08:41:16.801Z,57.35
2023-03-01T08:42:16.854Z,57.32
2023-03-01T08:43:16.772Z,57.42
2023-03-01T08:44:17.909Z,57.01
2023-03-01T08:45:16.748Z,56.81
2023-03-01T08:46:16.793Z,56.29
2023-03-01T08:47:16.745Z,56.39
2023-03-01T08:48:16.761Z,56.31
2023-03-01T08:49:17.730Z,56.10
2023-03-01T08:50:16.697Z,57.04
2023-03-01T08:51:16.726Z,57.24
2023-03-01T08:52:16.711Z,57.22
2023-03-01T08:53:16.687Z,57.01
2023-03-01T08:54:16.663Z,56.91
2023-03-01T08:55:16.648Z,57.94
2023-03-01T08:56:16.638Z,57.01
2023-03-01T08:57:16.630Z,57.29
2023-03-01T08:58:16.682Z,56.05
2023-03-01T08:59:16.612Z,55.95
2023-03-01T09:00:16.593Z,56.49
2023-03-01T09:01:16.593Z,55.85
2023-03-01T09:02:16.624Z,57.22
2023-03-01T09:03:16.560Z,55.85
2023-03-01T09:04:17.590Z,56.77
2023-03-01T09:05:17.713Z,56.05
2023-03-01T09:06:16.528Z,56.24
2023-03-01T09:07:16.520Z,56.85
2023-03-01T09:08:17.515Z,56.37
2023-03-01T09:09:16.480Z,55.62
2023-03-01T09:10:17.511Z,55.62
2023-03-01T09:11:16.541Z,55.72
2023-03-01T09:12:16.459Z,55.49
2023-03-01T09:13:16.491Z,55.74
2023-03-01T09:14:16.467Z,56.05
2023-03-01T09:15:16.455Z,56.26
2023-03-01T09:16:16.468Z,56.18
2023-03-01T09:17:16.493Z,56.05
2023-03-01T09:18:16.398Z,56.13
2023-03-01T09:19:17.417Z,55.72
2023-03-01T09:20:16.360Z,55.80
2023-03-01T09:21:16.377Z,55.41
2023-03-01T09:22:16.357Z,55.59
2023-03-01T09:23:16.380Z,55.28
2023-03-01T09:24:16.357Z,54.55
2023-03-01T09:25:16.335Z,55.18
2023-03-01T09:26:16.335Z,54.66
2023-03-01T09:27:17.320Z,54.97
2023-03-01T09:28:29.209Z,55.28
2023-03-01T09:29:17.286Z,55.28
2023-03-01T09:30:17.295Z,55.30
2023-03-01T09:31:17.344Z,55.28
2023-03-01T09:32:16.390Z,54.35
2023-03-01T09:33:16.243Z,54.40
2023-03-01T09:34:16.242Z,55.46
2023-03-01T09:35:16.209Z,55.56
2023-03-01T09:36:16.215Z,55.87
2023-03-01T09:37:17.187Z,55.56
2023-03-01T09:38:16.207Z,55.22
2023-03-01T09:39:16.170Z,55.85
2023-03-01T09:40:16.190Z,55.33
2023-03-01T09:41:16.138Z,54.91
2023-03-01T09:42:16.157Z,55.33
2023-03-01T09:43:16.135Z,55.12
2023-03-01T09:44:16.111Z,55.25
2023-03-01T09:45:16.096Z,55.46
2023-03-01T09:46:17.233Z,55.46
2023-03-01T09:47:16.064Z,55.35
2023-03-01T09:48:17.064Z,55.66
2023-03-01T09:49:16.101Z,55.38
2023-03-01T09:50:16.106Z,55.87
2023-03-01T09:51:17.092Z,55.69
2023-03-01T09:52:16.027Z,55.87
2023-03-01T09:53:16.992Z,55.79
2023-03-01T09:54:16.010Z,55.98
2023-03-01T09:55:16.021Z,55.77
2023-03-01T09:56:15.994Z,54.71
2023-03-01T09:57:15.988Z,53.99
2023-03-01T09:58:16.968Z,54.40
2023-03-01T09:59:16.932Z,55.33
2023-03-01T10:00:15.944Z,55.41
2023-03-01T10:01:15.955Z,55.30
2023-03-01T10:02:16.930Z,54.58
2023-03-01T10:03:15.978Z,53.60
2023-03-01T10:04:15.980Z,53.70
2023-03-01T10:05:15.890Z,53.27
2023-03-01T10:06:27.507Z,54.14
2023-03-01T10:07:16.853Z,54.17
2023-03-01T10:08:15.880Z,54.48
2023-03-01T10:09:15.879Z,53.83
2023-03-01T10:10:16.886Z,53.94
2023-03-01T10:11:15.817Z,54.25
2023-03-01T10:12:15.818Z,54.02
2023-03-01T10:13:15.825Z,53.91
2023-03-01T10:14:15.801Z,53.50
2023-03-01T10:15:15.779Z,54.17
2023-03-01T10:16:15.834Z,54.35
2023-03-01T10:17:15.800Z,54.89
2023-03-01T10:18:16.763Z,54.14
2023-03-01T10:19:15.744Z,54.53
2023-03-01T10:20:15.705Z,53.81
2023-03-01T10:21:15.722Z,53.63
2023-03-01T10:22:15.788Z,54.32
2023-03-01T10:23:15.716Z,54.25
2023-03-01T10:24:15.683Z,53.94
2023-03-01T10:25:15.674Z,54.25
2023-03-01T10:26:15.715Z,54.12
2023-03-01T10:27:16.667Z,53.60
2023-03-01T10:28:16.678Z,54.14
2023-03-01T10:29:15.622Z,53.73
2023-03-01T10:30:16.606Z,53.70
2023-03-01T10:31:16.626Z,54.12
2023-03-01T10:32:15.622Z,53.37
2023-03-01T10:33:15.605Z,53.60
2023-03-01T10:34:15.586Z,53.70
2023-03-01T10:35:15.557Z,53.47
2023-03-01T10:36:15.568Z,53.19
2023-03-01T10:37:15.581Z,53.42
2023-03-01T10:38:15.530Z,54.04
2023-03-01T10:39:16.523Z,54.06
2023-03-01T10:40:15.516Z,54.27
2023-03-01T10:41:15.575Z,54.58
2023-03-01T10:42:15.463Z,55.20
2023-03-01T10:43:15.478Z,54.25
2023-03-01T10:44:15.452Z,54.45
2023-03-01T10:45:15.444Z,53.81
2023-03-01T10:46:15.508Z,53.81
2023-03-01T10:47:16.437Z,53.78
2023-03-01T10:48:15.444Z,53.89
2023-03-01T10:49:16.406Z,53.37
2023-03-01T10:50:15.408Z,53.27
2023-03-01T10:51:15.379Z,52.11
2023-03-01T10:52:15.382Z,53.47
2023-03-01T10:53:15.385Z,52.95
2023-03-01T10:54:15.346Z,52.93
2023-03-01T10:55:15.361Z,52.52
2023-03-01T10:56:15.356Z,52.62
2023-03-01T10:57:15.361Z,52.62
2023-03-01T10:58:15.310Z,52.83
2023-03-01T10:59:15.327Z,52.83
2023-03-01T11:00:15.286Z,53.24
2023-03-01T11:01:16.301Z,52.93
2023-03-01T11:02:24.396Z,52.70
2023-03-01T11:03:16.293Z,52.50
2023-03-01T11:04:16.306Z,51.98
2023-03-01T11:05:16.270Z,52.47
2023-03-01T11:06:15.261Z,52.91
2023-03-01T11:07:15.259Z,51.95
2023-03-01T11:08:16.207Z,51.78
2023-03-01T11:09:15.184Z,51.87
2023-03-01T11:10:15.194Z,52.70
2023-03-01T11:11:16.170Z,52.81
2023-03-01T11:12:15.162Z,52.88
2023-03-01T11:13:16.200Z,51.78
2023-03-01T11:14:25.966Z,51.67
2023-03-01T11:15:16.145Z,51.67
2023-03-01T11:16:16.200Z,51.65
2023-03-01T11:17:15.109Z,51.34
2023-03-01T11:18:15.089Z,51.15
2023-03-01T11:19:15.112Z,51.67
2023-03-01T11:20:15.058Z,51.46
2023-03-01T11:21:15.074Z,52.16
2023-03-01T11:22:15.130Z,51.85
2023-03-01T11:23:15.023Z,51.34
2023-03-01T11:24:16.025Z,51.00
2023-03-01T11:25:15.039Z,50.72
2023-03-01T11:26:15.007Z,51.44
2023-03-01T11:27:15.021Z,50.82
2023-03-01T11:28:15.012Z,51.44
2023-03-01T11:29:15.961Z,50.10
2023-03-01T11:30:14.969Z,49.87
2023-03-01T11:31:16.045Z,50.10
2023-03-01T11:32:15.025Z,50.92
2023-03-01T11:33:16.021Z,51.05
2023-03-01T11:34:14.947Z,51.57
2023-03-01T11:35:14.950Z,51.87
2023-03-01T11:36:14.972Z,51.46
2023-03-01T11:37:14.905Z,51.15
2023-03-01T11:38:14.890Z,51.05
2023-03-01T11:39:14.926Z,50.74
2023-03-01T11:40:14.917Z,50.02
2023-03-01T11:41:15.834Z,50.54
2023-03-01T11:42:30.224Z,49.91
2023-03-01T11:43:15.897Z,50.51
2023-03-01T11:44:14.801Z,51.05
2023-03-01T11:45:14.825Z,51.36
2023-03-01T11:46:14.854Z,50.95
2023-03-01T11:47:14.858Z,51.05
2023-03-01T11:48:14.814Z,50.95
2023-03-01T11:49:15.752Z,50.95
2023-03-01T11:50:14.849Z,51.67
2023-03-01T11:51:15.724Z,50.95
2023-03-01T11:52:15.709Z,50.33
2023-03-01T11:53:14.758Z,50.02
2023-03-01T11:54:14.743Z,50.31
2023-03-01T11:55:14.709Z,50.38
2023-03-01T11:56:15.675Z,50.05
2023-03-01T11:57:15.707Z,50.05
2023-03-01T11:58:14.690Z,49.44
2023-03-01T11:59:14.642Z,48.92
2023-03-01T12:00:14.699Z,49.15
2023-03-01T12:01:14.655Z,48.92
2023-03-01T12:02:14.635Z,49.00
2023-03-01T12:03:14.660Z,49.23
2023-03-01T12:04:15.639Z,49.44
2023-03-01T12:05:14.572Z,49.13
2023-03-01T12:06:15.582Z,49.10
2023-03-01T12:07:14.559Z,49.33
2023-03-01T12:08:15.581Z,49.98
2023-03-01T12:09:14.591Z,50.28
2023-03-01T12:10:14.553Z,49.77
2023-03-01T12:11:14.544Z,49.79
2023-03-01T12:12:14.492Z,48.99
2023-03-01T12:13:15.526Z,49.30
2023-03-01T12:14:14.494Z,50.33
2023-03-01T12:15:14.517Z,50.12
2023-03-01T12:16:15.251Z,50.33
2023-03-01T12:17:14.467Z,50.04
2023-03-01T12:18:14.432Z,50.23
2023-03-01T12:19:14.446Z,50.74
2023-03-01T12:20:14.423Z,50.10
2023-03-01T12:21:14.427Z,50.10
2023-03-01T12:22:14.404Z,49.35
2023-03-01T12:23:20.455Z,49.13
2023-03-01T12:24:15.405Z,49.05
2023-03-01T12:25:14.424Z,49.35
2023-03-01T12:26:14.538Z,49.05
2023-03-01T12:27:14.353Z,48.66
2023-03-01T12:28:14.330Z,49.38
2023-03-01T12:29:14.332Z,48.86
2023-03-01T12:30:14.329Z,48.63
2023-03-01T12:31:14.347Z,48.45
2023-03-01T12:32:14.425Z,48.35
2023-03-01T12:33:14.265Z,48.12
2023-03-01T12:34:14.264Z,48.12
2023-03-01T12:35:14.307Z,48.02
2023-03-01T12:36:15.306Z,48.92
2023-03-01T12:37:14.292Z,48.51
2023-03-01T12:38:14.248Z,48.12
2023-03-01T12:39:14.236Z,48.24
2023-03-01T12:40:14.192Z,48.02
2023-03-01T12:41:14.219Z,47.81
2023-03-01T12:42:15.189Z,48.20
2023-03-01T12:43:14.167Z,48.53
2023-03-01T12:44:14.208Z,48.94
2023-03-01T12:45:14.148Z,49.15
2023-03-01T12:46:14.247Z,49.05
2023-03-01T12:47:15.141Z,49.25
2023-03-01T12:48:14.100Z,49.23
2023-03-01T12:49:14.121Z,49.33
2023-03-01T12:50:14.138Z,49.00
2023-03-01T12:51:15.112Z,49.00
2023-03-01T12:52:14.055Z,48.49